createdAt,value
2023-04-08T00:00:50.300Z,99777.13
2023-04-08T00:03:54.217Z,99777.25
2023-04-08T00:06:58.004Z,99778.97
2023-04-08T00:10:01.604Z,99779.94
2023-04-08T00:13:07.099Z,99778.03
2023-04-08T00:16:10.762Z,99783.66
2023-04-08T00:19:14.420Z,99781.03
2023-04-08T00:22:18.033Z,99783.66
2023-04-08T00:25:24.093Z,99786.13
2023-04-08T00:28:30.905Z,99790.25
2023-04-08T00:31:34.592Z,99789.16
2023-04-08T00:34:38.773Z,99790.94
2023-04-08T00:37:42.888Z,99791.66
2023-04-08T00:40:46.590Z,99785.03
2023-04-08T00:43:51.693Z,99787.25
2023-04-08T00:46:56.023Z,99782.31
2023-04-08T00:49:59.815Z,99791.91
2023-04-08T00:53:03.438Z,99801.75
2023-04-08T00:56:07.174Z,99794.91
2023-04-08T00:59:12.487Z,99807.97
2023-04-08T01:02:20.811Z,99802.63
2023-04-08T01:05:32.584Z,99799.19
2023-04-08T01:08:39.919Z,99809.75
2023-04-08T01:11:46.146Z,99817.56
2023-04-08T01:14:57.765Z,99817.84
2023-04-08T01:18:03.365Z,99812.84
2023-04-08T01:21:09.151Z,99812.81
2023-04-08T01:24:21.150Z,99816.03
2023-04-08T01:27:27.314Z,99825.69
2023-04-08T01:30:32.280Z,99813.38
2023-04-08T01:33:37.153Z,99817.06
2023-04-08T01:36:42.187Z,99821.91
2023-04-08T01:39:47.213Z,99813.97
2023-04-08T01:42:55.801Z,99819.31
2023-04-08T01:46:00.969Z,99823.59
2023-04-08T01:49:06.144Z,99822.72
2023-04-08T01:52:13.071Z,99824.91
2023-04-08T01:55:17.086Z,99828.72
2023-04-08T01:58:24.302Z,99826.63
2023-04-08T02:01:31.101Z,99840.69
2023-04-08T02:04:35.731Z,99843.38
2023-04-08T02:07:39.354Z,99849.41
2023-04-08T02:10:42.999Z,99842.91
2023-04-08T02:13:48.225Z,99842.41
2023-04-08T02:16:55.014Z,99836.38
2023-04-08T02:20:05.094Z,99841.31
2023-04-08T02:23:15.379Z,99844.16
2023-04-08T02:26:21.118Z,99847.72
2023-04-08T02:29:27.747Z,99849.06
2023-04-08T02:32:34.111Z,99851.91
2023-04-08T02:35:38.603Z,99858.09
2023-04-08T02:38:49.906Z,99850.25
2023-04-08T02:41:53.936Z,99850.91
2023-04-08T02:45:00.498Z,99855.56
2023-04-08T02:48:04.086Z,99856.66
2023-04-08T02:51:08.586Z,99854.09
2023-04-08T02:54:12.197Z,99848.16
2023-04-08T02:57:17.309Z,99853.78
2023-04-08T03:00:22.473Z,99856.69
2023-04-08T03:03:29.836Z,99859.00
2023-04-08T03:06:33.679Z,99867.69
2023-04-08T03:09:37.308Z,99877.56
2023-04-08T03:12:40.934Z,99878.22
2023-04-08T03:15:46.587Z,99882.88
2023-04-08T03:18:52.086Z,99877.09
2023-04-08T03:21:55.970Z,99875.44
2023-04-08T03:24:59.711Z,99877.00
2023-04-08T03:28:03.359Z,99883.25
2023-04-08T03:31:08.655Z,99872.00
2023-04-08T03:34:12.338Z,99868.19
2023-04-08T03:37:15.946Z,99872.72
2023-04-08T03:40:19.891Z,99879.06
2023-04-08T03:43:23.445Z,99880.06
2023-04-08T03:46:28.788Z,99876.47
2023-04-08T03:49:32.558Z,99872.78
2023-04-08T03:52:36.222Z,99881.72
2023-04-08T03:55:39.922Z,99882.47
2023-04-08T03:58:43.538Z,99892.09
2023-04-08T04:01:48.969Z,99893.16
2023-04-08T04:04:52.737Z,99888.41
2023-04-08T04:07:56.478Z,99891.56
2023-04-08T04:11:00.576Z,99891.06
2023-04-08T04:14:04.333Z,99890.84
2023-04-08T04:17:09.442Z,99895.00
2023-04-08T04:20:14.048Z,99897.84
2023-04-08T04:23:17.662Z,99905.03
2023-04-08T04:26:22.115Z,99911.69
2023-04-08T04:29:26.169Z,99910.63
2023-04-08T04:32:31.417Z,99902.28
2023-04-08T04:35:35.596Z,99899.56
2023-04-08T04:38:39.365Z,99899.16
2023-04-08T04:41:44.557Z,99906.41
2023-04-08T04:44:48.211Z,99906.47
2023-04-08T04:47:53.265Z,99900.28
2023-04-08T04:50:57.506Z,99910.16
2023-04-08T04:54:01.306Z,99910.09
2023-04-08T04:57:05.050Z,99913.97
2023-04-08T05:00:09.982Z,99916.28
2023-04-08T05:03:15.610Z,99914.94
2023-04-08T05:06:19.467Z,99913.13
2023-04-08T05:09:23.352Z,99915.22
2023-04-08T05:12:28.351Z,99915.84
2023-04-08T05:15:32.180Z,99916.28
2023-04-08T05:18:37.473Z,99924.97
2023-04-08T05:21:41.374Z,99930.59
2023-04-08T05:24:45.352Z,99940.19
2023-04-08T05:27:49.067Z,99939.72
2023-04-08T05:30:53.541Z,99937.78
2023-04-08T05:33:58.913Z,99936.81
2023-04-08T05:37:02.697Z,99942.78
2023-04-08T05:40:07.858Z,99942.94
2023-04-08T05:43:11.834Z,99939.81
2023-04-08T05:46:15.788Z,99941.66
2023-04-08T05:49:21.444Z,99940.94
2023-04-08T05:52:25.164Z,99947.97
2023-04-08T05:55:29.309Z,99942.72
2023-04-08T05:58:33.139Z,99949.59
2023-04-08T06:01:37.031Z,99944.53
2023-04-08T06:04:42.649Z,99941.53
2023-04-08T06:07:46.870Z,99944.97
2023-04-08T06:10:51.727Z,99948.13
2023-04-08T06:13:55.637Z,99940.00
2023-04-08T06:16:59.357Z,99941.25
2023-04-08T06:20:05.133Z,99949.66
2023-04-08T06:23:08.875Z,99944.53
2023-04-08T06:26:13.583Z,99950.06
2023-04-08T06:29:17.413Z,99943.59
2023-04-08T06:32:21.303Z,99944.72
2023-04-08T06:35:26.561Z,99949.22
2023-04-08T06:38:30.373Z,99942.66
2023-04-08T06:41:34.277Z,99947.25
2023-04-08T06:44:52.349Z,99945.25
2023-04-08T06:47:57.385Z,99941.50
2023-04-08T06:51:03.038Z,99938.50
2023-04-08T06:54:06.857Z,99946.41
2023-04-08T06:57:10.805Z,99942.09
2023-04-08T07:00:15.487Z,99933.41
2023-04-08T07:03:19.358Z,99935.78
2023-04-08T07:06:24.797Z,99938.59
2023-04-08T07:09:28.986Z,99935.84
2023-04-08T07:12:32.789Z,99938.63
2023-04-08T07:15:36.710Z,99950.25
2023-04-08T07:18:41.805Z,99945.41
2023-04-08T07:21:47.177Z,99952.06
2023-04-08T07:24:51.033Z,99952.81
2023-04-08T07:27:54.853Z,99949.59
2023-04-08T07:30:58.820Z,99950.97
2023-04-08T07:34:02.717Z,99955.31
2023-04-08T07:37:08.031Z,99943.63
2023-04-08T07:40:12.697Z,99943.47
2023-04-08T07:43:16.573Z,99944.97
2023-04-08T07:46:20.815Z,99939.47
2023-04-08T07:49:24.714Z,99951.13
2023-04-08T07:52:31.613Z,99937.75
2023-04-08T07:55:35.842Z,99941.53
2023-04-08T07:58:40.777Z,99944.53
2023-04-08T08:01:45.086Z,99946.69
2023-04-08T08:04:48.935Z,99947.41
2023-04-08T08:07:54.205Z,99949.19
2023-04-08T08:10:58.076Z,99948.06
2023-04-08T08:14:01.977Z,99950.56
2023-04-08T08:17:05.884Z,99949.41
2023-04-08T08:20:10.721Z,99953.06
2023-04-08T08:23:16.079Z,99947.53
2023-04-08T08:26:20.003Z,99944.59
2023-04-08T08:29:23.957Z,99948.59
2023-04-08T08:32:27.864Z,99947.03
2023-04-08T08:35:31.797Z,99945.16
2023-04-08T08:38:37.166Z,99948.19
2023-04-08T08:41:42.467Z,99936.25
2023-04-08T08:44:46.661Z,99936.13
2023-04-08T08:47:51.647Z,99933.78
2023-04-08T08:50:55.564Z,99935.25
2023-04-08T08:54:04.509Z,99937.13
2023-04-08T08:57:18.877Z,99926.53
2023-04-08T09:00:34.574Z,99933.25
2023-04-08T09:03:39.135Z,99935.16
2023-04-08T09:06:44.214Z,99928.22
2023-04-08T09:09:53.021Z,99931.56
2023-04-08T09:12:57.915Z,99926.81
2023-04-08T09:16:06.635Z,99925.41
2023-04-08T09:19:12.191Z,99923.47
2023-04-08T09:22:16.213Z,99925.88
2023-04-08T09:25:27.180Z,99931.97
2023-04-08T09:28:32.038Z,99920.09
2023-04-08T09:31:38.610Z,99922.19
2023-04-08T09:34:42.507Z,99923.88
2023-04-08T09:37:48.254Z,99917.72
2023-04-08T09:40:54.945Z,99924.41
2023-04-08T09:44:00.985Z,99920.84
2023-04-08T09:47:12.098Z,99921.19
2023-04-08T09:50:18.434Z,99918.22
2023-04-08T09:53:27.757Z,99921.19
2023-04-08T09:56:42.485Z,99929.06
2023-04-08T09:59:56.916Z,99928.75
2023-04-08T10:03:12.108Z,99919.59
2023-04-08T10:06:17.172Z,99919.13
2023-04-08T10:09:21.588Z,99927.19
2023-04-08T10:12:26.741Z,99919.78
2023-04-08T10:15:31.589Z,99910.81
2023-04-08T10:18:35.648Z,99911.00
2023-04-08T10:21:43.538Z,99901.91
2023-04-08T10:25:33.464Z,99911.44
2023-04-08T10:28:38.753Z,99905.50
2023-04-08T10:31:42.885Z,99899.56
2023-04-08T10:34:55.116Z,99890.00
2023-04-08T10:37:59.518Z,99887.09
2023-04-08T10:41:03.349Z,99892.25
2023-04-08T10:44:17.712Z,99886.25
2023-04-08T10:47:27.834Z,99886.91
2023-04-08T10:50:32.715Z,99882.75
2023-04-08T10:53:38.593Z,99870.16
2023-04-08T10:56:49.870Z,99876.06
2023-04-08T10:59:55.324Z,99861.41
2023-04-08T11:03:02.787Z,99863.00
2023-04-08T11:06:07.802Z,99861.31
2023-04-08T11:09:12.369Z,99858.22
2023-04-08T11:12:19.088Z,99850.69
2023-04-08T11:15:25.789Z,99847.59
2023-04-08T11:18:30.120Z,99844.38
2023-04-08T11:21:36.802Z,99840.66
2023-04-08T11:24:41.357Z,99845.44
2023-04-08T11:27:45.407Z,99843.94
2023-04-08T11:30:51.129Z,99829.44
2023-04-08T11:33:57.055Z,99826.34
2023-04-08T11:37:00.848Z,99823.50
2023-04-08T11:40:07.998Z,99825.19
2023-04-08T11:43:12.571Z,99820.03
2023-04-08T11:46:18.020Z,99810.44
2023-04-08T11:49:21.843Z,99803.53
2023-04-08T11:52:41.852Z,99810.38
2023-04-08T11:55:45.796Z,99800.44
2023-04-08T11:58:50.176Z,99795.84
2023-04-08T12:01:55.517Z,99796.00
2023-04-08T12:04:59.357Z,99792.38
2023-04-08T12:08:03.702Z,99792.19
2023-04-08T12:11:19.202Z,99789.91
2023-04-08T12:14:28.194Z,99782.63
2023-04-08T12:17:33.897Z,99776.13
2023-04-08T12:20:37.771Z,99771.69
2023-04-08T12:23:41.846Z,99774.91
2023-04-08T12:26:45.730Z,99770.44
2023-04-08T12:29:50.112Z,99767.94
2023-04-08T12:32:55.681Z,99765.97
2023-04-08T12:35:59.816Z,99762.25
2023-04-08T12:39:03.705Z,99754.28
2023-04-08T12:42:07.626Z,99759.94
2023-04-08T12:45:11.889Z,99753.66
2023-04-08T12:48:17.267Z,99757.81
2023-04-08T12:51:21.232Z,99750.31
2023-04-08T12:54:25.174Z,99750.59
2023-04-08T12:57:29.026Z,99749.41
2023-04-08T13:00:32.928Z,99747.66
2023-04-08T13:03:39.663Z,99734.59
2023-04-08T13:06:43.526Z,99727.28
2023-04-08T13:09:47.828Z,99730.38
2023-04-08T13:12:51.685Z,99731.78
2023-04-08T13:15:55.563Z,99718.56
2023-04-08T13:19:00.781Z,99722.97
2023-04-08T13:22:04.565Z,99721.25
2023-04-08T13:25:08.986Z,99720.19
2023-04-08T13:28:12.896Z,99713.97
2023-04-08T13:31:16.848Z,99709.81
2023-04-08T13:34:22.304Z,99704.97
2023-04-08T13:37:26.148Z,99704.19
2023-04-08T13:40:30.413Z,99699.63
2023-04-08T13:43:34.282Z,99699.16
2023-04-08T13:46:38.075Z,99697.13
2023-04-08T13:49:43.414Z,99689.28
2023-04-08T13:52:47.597Z,99694.97
2023-04-08T13:55:55.266Z,99678.88
2023-04-08T13:58:59.467Z,99693.59
2023-04-08T14:02:04.046Z,99690.69
2023-04-08T14:05:10.639Z,99691.53
2023-04-08T14:08:14.681Z,99691.78
2023-04-08T14:11:18.467Z,99689.53
2023-04-08T14:14:22.338Z,99679.03
2023-04-08T14:17:26.252Z,99690.22
2023-04-08T14:20:32.187Z,99688.19
2023-04-08T14:23:36.132Z,99692.66
2023-04-08T14:26:39.961Z,99681.75
2023-04-08T14:29:43.775Z,99689.03
2023-04-08T14:32:47.611Z,99694.47
2023-04-08T14:35:54.444Z,99691.13
2023-04-08T14:38:58.338Z,99696.31
2023-04-08T14:42:02.408Z,99683.59
2023-04-08T14:45:06.838Z,99688.63
2023-04-08T14:48:10.672Z,99681.81
2023-04-08T14:51:16.040Z,99679.88
2023-04-08T14:54:20.360Z,99679.44
2023-04-08T14:57:24.142Z,99680.47
2023-04-08T15:00:28.198Z,99679.22
2023-04-08T15:03:32.047Z,99677.97
2023-04-08T15:06:39.270Z,99675.78
2023-04-08T15:09:43.295Z,99674.81
2023-04-08T15:12:47.050Z,99670.31
2023-04-08T15:15:50.914Z,99688.47
2023-04-08T15:18:55.385Z,99686.81
2023-04-08T15:22:00.690Z,99679.91
2023-04-08T15:25:05.694Z,99683.63
2023-04-08T15:28:10.082Z,99684.75
2023-04-08T15:31:14.158Z,99684.31
2023-04-08T15:34:18.096Z,99678.41
2023-04-08T15:37:24.080Z,99681.53
2023-04-08T15:40:28.106Z,99684.53
2023-04-08T15:43:31.966Z,99684.53
2023-04-08T15:46:37.467Z,99681.06
2023-04-08T15:49:41.796Z,99679.91
2023-04-08T15:52:47.193Z,99679.56
2023-04-08T15:55:51.124Z,99678.41
2023-04-08T15:58:55.043Z,99675.63
2023-04-08T16:01:59.001Z,99678.94
2023-04-08T16:05:03.132Z,99682.72
2023-04-08T16:08:08.547Z,99678.63
2023-04-08T16:11:12.532Z,99683.56
2023-04-08T16:14:16.706Z,99679.78
2023-04-08T16:17:20.491Z,99688.16
2023-04-08T16:20:24.340Z,99681.78
2023-04-08T16:23:30.022Z,99675.84
2023-04-08T16:26:34.512Z,99677.16
2023-04-08T16:29:38.537Z,99676.81
2023-04-08T16:32:42.422Z,99680.75
2023-04-08T16:35:46.769Z,99685.72
2023-04-08T16:38:53.930Z,99691.28
2023-04-08T16:41:57.775Z,99686.19
2023-04-08T16:45:01.816Z,99688.84
2023-04-08T16:48:05.964Z,99693.91
2023-04-08T16:51:10.007Z,99696.38
2023-04-08T16:54:15.386Z,99697.66
2023-04-08T16:57:19.396Z,99707.03
2023-04-08T17:00:23.517Z,99703.41
2023-04-08T17:03:27.582Z,99705.03
2023-04-08T17:06:31.595Z,99707.53
2023-04-08T17:09:37.380Z,99714.06
2023-04-08T17:12:41.945Z,99718.34
2023-04-08T17:15:45.751Z,99719.66
2023-04-08T17:18:49.756Z,99724.59
2023-04-08T17:21:53.772Z,99723.75
2023-04-08T17:24:59.142Z,99730.50
2023-04-08T17:28:03.052Z,99731.00
2023-04-08T17:31:06.970Z,99740.00
2023-04-08T17:34:10.863Z,99739.03
2023-04-08T17:37:14.761Z,99744.44
2023-04-08T17:40:20.439Z,99749.84
2023-04-08T17:43:24.260Z,99753.31
2023-04-08T17:46:28.247Z,99763.66
2023-04-08T17:49:32.183Z,99764.94
2023-04-08T17:52:36.068Z,99766.25
2023-04-08T17:55:41.494Z,99782.66
2023-04-08T17:58:48.474Z,99789.50
2023-04-08T18:01:52.330Z,99791.16
2023-04-08T18:04:56.336Z,99794.59
2023-04-08T18:08:00.135Z,99804.81
2023-04-08T18:11:07.793Z,99802.84
2023-04-08T18:14:12.837Z,99806.34
2023-04-08T18:17:16.756Z,99813.53
2023-04-08T18:20:20.861Z,99811.97
2023-04-08T18:23:24.814Z,99826.75
2023-04-08T18:26:30.023Z,99824.97
2023-04-08T18:29:34.008Z,99822.59
2023-04-08T18:32:37.799Z,99826.75
2023-04-08T18:35:41.968Z,99828.16
2023-04-08T18:38:46.143Z,99831.50
2023-04-08T18:41:51.278Z,99840.69
2023-04-08T18:44:55.180Z,99849.59
2023-04-08T18:47:59.250Z,99852.78
2023-04-08T18:51:03.080Z,99851.44
2023-04-08T18:54:06.948Z,99857.78
2023-04-08T18:57:12.439Z,99858.78
2023-04-08T19:00:16.722Z,99859.75
2023-04-08T19:03:20.993Z,99867.75
2023-04-08T19:06:24.919Z,99865.22
2023-04-08T19:09:28.775Z,99876.47
2023-04-08T19:12:34.176Z,99870.34
2023-04-08T19:15:38.043Z,99873.94
2023-04-08T19:18:41.898Z,99875.44
2023-04-08T19:21:45.668Z,99875.06
2023-04-08T19:24:49.581Z,99885.16
2023-04-08T19:27:54.825Z,99883.94
2023-04-08T19:30:58.776Z,99891.88
2023-04-08T19:34:02.642Z,99879.84
2023-04-08T19:37:06.789Z,99886.53
2023-04-08T19:40:11.674Z,99888.69
2023-04-08T19:43:17.932Z,99886.38
2023-04-08T19:46:21.819Z,99891.63
2023-04-08T19:49:25.890Z,99886.03
2023-04-08T19:52:29.646Z,99894.38
2023-04-08T19:55:33.644Z,99894.53
2023-04-08T19:58:39.007Z,99895.31
2023-04-08T20:01:42.966Z,99894.88
2023-04-08T20:04:47.049Z,99902.44
2023-04-08T20:07:51.066Z,99898.38
2023-04-08T20:10:54.882Z,99909.03
2023-04-08T20:14:00.508Z,99912.31
2023-04-08T20:17:04.726Z,99919.78
2023-04-08T20:20:09.842Z,99904.69
2023-04-08T20:23:13.922Z,99911.78
2023-04-08T20:26:17.862Z,99907.72
2023-04-08T20:29:23.244Z,99914.59
2023-04-08T20:32:28.150Z,99908.13
2023-04-08T20:35:32.004Z,99916.84
2023-04-08T20:38:37.143Z,99921.97
2023-04-08T20:41:40.925Z,99914.94
2023-04-08T20:44:46.274Z,99914.97
2023-04-08T20:47:50.151Z,99920.91
2023-04-08T20:50:54.009Z,99920.47
2023-04-08T20:53:57.776Z,99920.94
2023-04-08T20:57:01.619Z,99928.03
2023-04-08T21:00:07.858Z,99925.84
2023-04-08T21:03:11.798Z,99924.50
2023-04-08T21:06:18.937Z,99924.78
2023-04-08T21:09:22.724Z,99926.16
2023-04-08T21:12:26.506Z,99918.72
2023-04-08T21:15:32.019Z,99913.50
2023-04-08T21:18:36.342Z,99924.09
2023-04-08T21:21:40.229Z,99929.16
2023-04-08T21:24:44.096Z,99924.75
2023-04-08T21:27:47.969Z,99929.84
2023-04-08T21:30:54.425Z,99925.41
2023-04-08T21:33:58.304Z,99927.25
2023-04-08T21:37:02.311Z,99927.25
2023-04-08T21:40:06.879Z,99927.66
2023-04-08T21:43:10.667Z,99922.81
2023-04-08T21:46:16.065Z,99927.78
2023-04-08T21:49:19.973Z,99922.56
2023-04-08T21:52:23.880Z,99920.22
2023-04-08T21:55:37.796Z,99921.88
2023-04-08T21:58:41.574Z,99923.94
2023-04-08T22:01:46.858Z,99926.44
2023-04-08T22:04:50.914Z,99920.53
2023-04-08T22:07:55.337Z,99927.66
2023-04-08T22:10:59.279Z,99926.38
2023-04-08T22:14:03.085Z,99923.06
2023-04-08T22:17:08.517Z,99925.53
2023-04-08T22:20:13.351Z,99927.97
2023-04-08T22:23:17.196Z,99930.59
2023-04-08T22:26:21.581Z,99931.88
2023-04-08T22:29:25.389Z,99935.44
2023-04-08T22:32:30.726Z,99944.53
2023-04-08T22:35:34.679Z,99940.81
2023-04-08T22:38:38.511Z,99948.38
2023-04-08T22:41:42.286Z,99944.25
2023-04-08T22:44:46.233Z,99944.81
2023-04-08T22:47:51.458Z,99948.38
2023-04-08T22:50:55.189Z,99950.19
2023-04-08T22:53:59.020Z,99946.59
2023-04-08T22:57:03.331Z,99952.47
2023-04-08T23:00:08.308Z,99953.06
2023-04-08T23:03:13.449Z,99946.88
2023-04-08T23:06:17.379Z,99947.16
2023-04-08T23:09:23.936Z,99952.22
2023-04-08T23:12:27.523Z,99953.88
2023-04-08T23:15:31.328Z,99944.91
2023-04-08T23:18:36.608Z,99952.88
2023-04-08T23:21:40.654Z,99943.34
2023-04-08T23:24:44.853Z,99941.59
2023-04-08T23:27:48.496Z,99942.31
2023-04-08T23:30:52.232Z,99939.97
2023-04-08T23:33:57.389Z,99935.81
2023-04-08T23:37:01.141Z,99928.22
2023-04-08T23:40:04.938Z,99937.41
2023-04-08T23:43:08.674Z,99942.34
2023-04-08T23:46:12.295Z,99938.69
2023-04-08T23:49:17.528Z,99942.31
2023-04-08T23:52:21.178Z,99939.03
2023-04-08T23:55:24.864Z,99938.88
2023-04-08T23:58:28.562Z,99939.34
